Time;durP1;ratioP1;P1;durP2;ratioP2;P2;SDS_P1;SDS_P2;PMS_P1;PMS_P2;Temp;Humidity;BMP_temperature;BMP_pressure;BME280_temperature;BME280_humidity;BME280_pressure;Samples;Min_cycle;Max_cycle;Signal;HPM_P1;HPM_P2
2023/04/10 00:02:18;;;;;;;15.38;9.52;;;6.10;56.30;;;;;;5024044;28;20311;-64
2023/04/10 00:04:43;;;;;;;17.75;9.20;;;6.10;56.40;;;;;;5027569;28;20021;-62
2023/04/10 00:07:10;;;;;;;14.90;9.70;;;6.00;56.40;;;;;;5025873;28;20093;-63
2023/04/10 00:09:35;;;;;;;14.27;9.48;;;6.00;56.60;;;;;;5016550;28;20030;-62
2023/04/10 00:12:01;;;;;;;15.27;9.43;;;6.00;56.70;;;;;;5032377;28;20025;-63
2023/04/10 00:14:27;;;;;;;18.33;9.43;;;6.00;56.80;;;;;;5028084;28;20048;-63
2023/04/10 00:16:52;;;;;;;14.52;9.60;;;5.90;56.70;;;;;;5029573;28;20026;-62
2023/04/10 00:19:18;;;;;;;13.20;8.73;;;5.90;56.70;;;;;;5027824;28;20030;-63
2023/04/10 00:21:44;;;;;;;13.98;8.95;;;5.90;56.70;;;;;;5053970;28;20022;-62
2023/04/10 00:24:09;;;;;;;13.77;8.52;;;5.90;56.80;;;;;;5021308;28;20168;-63
2023/04/10 00:26:35;;;;;;;15.32;9.13;;;5.80;56.70;;;;;;5031226;28;20168;-62
2023/04/10 00:29:02;;;;;;;13.27;8.80;;;5.80;56.70;;;;;;5024917;28;20433;-62
2023/04/10 00:31:28;;;;;;;14.52;8.85;;;5.80;56.70;;;;;;5029126;28;20024;-62
2023/04/10 00:33:54;;;;;;;16.52;9.80;;;5.70;56.80;;;;;;5036052;28;20041;-61
2023/04/10 00:36:19;;;;;;;15.43;9.25;;;5.70;56.80;;;;;;5030872;28;20050;-62
2023/04/10 00:38:46;;;;;;;14.35;9.20;;;5.70;56.90;;;;;;5024324;28;20017;-61
2023/04/10 00:41:12;;;;;;;14.48;9.07;;;5.70;57.00;;;;;;5030787;28;20040;-63
2023/04/10 00:43:37;;;;;;;15.30;8.73;;;5.70;57.10;;;;;;5032587;28;20481;-62
2023/04/10 00:46:05;;;;;;;14.20;9.23;;;5.60;57.20;;;;;;5031112;28;20045;-61
2023/04/10 00:48:31;;;;;;;17.75;9.70;;;5.60;57.30;;;;;;5024344;28;20017;-62
2023/04/10 00:50:58;;;;;;;13.00;9.00;;;5.60;57.30;;;;;;5035205;28;20075;-63
2023/04/10 00:53:24;;;;;;;15.65;9.63;;;5.50;57.30;;;;;;5032888;28;20021;-62
2023/04/10 00:55:50;;;;;;;14.27;8.93;;;5.50;57.40;;;;;;5024349;28;20029;-62
2023/04/10 00:58:16;;;;;;;13.25;8.85;;;5.50;57.40;;;;;;5021897;28;20104;-62
2023/04/10 01:00:41;;;;;;;13.50;8.90;;;5.50;57.30;;;;;;5035251;28;20026;-62
2023/04/10 01:03:08;;;;;;;13.27;8.52;;;5.40;57.20;;;;;;5019441;28;20041;-61
2023/04/10 01:05:42;;;;;;;14.35;8.90;;;5.40;57.30;;;;;;5034679;28;20049;-61
2023/04/10 01:08:21;;;;;;;12.70;8.63;;;5.40;57.60;;;;;;5025918;28;20029;-61
2023/04/10 01:11:23;;;;;;;13.50;8.38;;;5.40;57.60;;;;;;5018707;28;20080;-63
2023/04/10 01:14:03;;;;;;;12.02;8.52;;;5.30;58.10;;;;;;5028008;28;20022;-62
2023/04/10 01:16:37;;;;;;;14.82;9.23;;;5.30;57.90;;;;;;5020838;28;20072;-62
2023/04/10 01:19:24;;;;;;;14.82;8.57;;;5.30;57.70;;;;;;5025953;28;20030;-62
2023/04/10 01:21:52;;;;;;;13.23;8.65;;;5.30;58.00;;;;;;5020227;28;20014;-62
2023/04/10 01:24:47;;;;;;;15.02;9.30;;;5.20;57.60;;;;;;5024573;28;20030;-63
2023/04/10 01:27:44;;;;;;;13.18;8.70;;;5.20;57.70;;;;;;5014150;28;20054;-61
2023/04/10 01:30:15;;;;;;;15.00;9.05;;;5.20;58.30;;;;;;5030880;28;20021;-61
2023/04/10 01:32:42;;;;;;;14.10;9.43;;;5.10;57.80;;;;;;5027949;28;20042;-62
2023/04/10 01:35:09;;;;;;;12.38;8.35;;;5.10;57.80;;;;;;5025919;28;20533;-63
2023/04/10 01:37:42;;;;;;;14.38;9.57;;;5.10;57.80;;;;;;5055472;28;20472;-62
2023/04/10 01:40:11;;;;;;;34.83;9.25;;;5.00;57.80;;;;;;5029537;28;20030;-62
2023/04/10 01:42:47;;;;;;;17.20;9.57;;;5.00;57.90;;;;;;4954141;28;20035;-62
2023/04/10 01:45:17;;;;;;;19.40;9.73;;;5.00;58.10;;;;;;5022736;28;20033;-62
2023/04/10 01:47:43;;;;;;;15.55;9.40;;;5.00;57.90;;;;;;5057697;28;20026;-63
2023/04/10 01:50:11;;;;;;;13.43;8.70;;;5.00;57.80;;;;;;5031333;28;20451;-61
2023/04/10 01:52:38;;;;;;;14.13;9.27;;;5.00;57.80;;;;;;5029823;28;20081;-61
2023/04/10 01:55:06;;;;;;;15.40;9.60;;;4.90;57.80;;;;;;5037056;28;20045;-63
2023/04/10 01:57:34;;;;;;;16.52;9.98;;;4.90;58.10;;;;;;5026732;28;20033;-61
2023/04/10 02:00:00;;;;;;;15.40;10.27;;;4.90;58.30;;;;;;5037582;28;20018;-61
2023/04/10 02:02:32;;;;;;;16.80;9.30;;;4.90;58.50;;;;;;5031245;28;20049;-62
2023/04/10 02:04:58;;;;;;;19.20;10.23;;;4.80;58.60;;;;;;5035195;28;20040;-61
2023/04/10 02:08:09;;;;;;;15.20;9.85;;;4.80;58.50;;;;;;5030034;28;20084;-62
2023/04/10 02:10:55;;;;;;;14.52;9.73;;;4.80;59.30;;;;;;5030407;28;20037;-62
2023/04/10 02:13:22;;;;;;;17.13;10.18;;;4.70;59.10;;;;;;5017223;28;20035;-62
2023/04/10 02:15:50;;;;;;;15.48;10.35;;;4.70;58.60;;;;;;5029495;28;20074;-62
2023/04/10 02:18:18;;;;;;;14.68;9.20;;;4.70;58.60;;;;;;5026225;28;20407;-62
2023/04/10 02:20:44;;;;;;;15.43;9.68;;;4.70;58.60;;;;;;5013964;28;20138;-62
2023/04/10 02:23:10;;;;;;;15.15;9.43;;;4.70;58.60;;;;;;5020880;28;20037;-61
2023/04/10 02:25:36;;;;;;;18.33;9.80;;;4.70;58.60;;;;;;5029588;28;20407;-62
2023/04/10 02:28:05;;;;;;;15.32;9.80;;;4.60;58.40;;;;;;5022899;28;20049;-62
2023/04/10 02:30:32;;;;;;;15.00;9.90;;;4.60;58.60;;;;;;5025249;28;20049;-61
2023/04/10 02:32:57;;;;;;;16.17;9.55;;;4.60;58.50;;;;;;5007444;28;20057;-62
2023/04/10 02:35:23;;;;;;;17.40;9.70;;;4.60;58.70;;;;;;5031682;28;20026;-61
2023/04/10 02:37:49;;;;;;;16.83;10.40;;;4.50;58.60;;;;;;5026367;28;20038;-61
2023/04/10 02:40:15;;;;;;;17.50;9.85;;;4.50;58.70;;;;;;5029682;28;20045;-63
2023/04/10 02:42:41;;;;;;;16.23;10.45;;;4.50;58.80;;;;;;5019900;28;20097;-62
2023/04/10 02:45:08;;;;;;;16.00;10.15;;;4.50;58.80;;;;;;5028418;28;20029;-62
2023/04/10 02:47:34;;;;;;;17.73;9.82;;;4.50;58.90;;;;;;5028151;28;20028;-61
2023/04/10 02:49:59;;;;;;;15.10;9.60;;;4.50;58.90;;;;;;5041103;28;20017;-62
2023/04/10 02:52:25;;;;;;;15.65;10.10;;;4.40;58.80;;;;;;5028197;28;20026;-63
2023/04/10 02:54:51;;;;;;;17.20;10.50;;;4.40;58.70;;;;;;5032997;28;20045;-62
2023/04/10 02:57:17;;;;;;;15.00;9.38;;;4.40;58.60;;;;;;5032692;28;20026;-63
2023/04/10 02:59:43;;;;;;;16.30;9.30;;;4.40;58.50;;;;;;5025146;28;20049;-64
2023/04/10 03:02:09;;;;;;;14.57;9.85;;;4.40;58.60;;;;;;5021674;28;20026;-64
2023/04/10 03:04:35;;;;;;;18.08;9.35;;;4.40;58.70;;;;;;5031668;28;20014;-62
2023/04/10 03:07:01;;;;;;;14.93;9.32;;;4.30;58.60;;;;;;5018250;28;20080;-63
2023/04/10 03:09:27;;;;;;;13.73;8.57;;;4.30;58.50;;;;;;5060524;28;20025;-61
2023/04/10 03:11:53;;;;;;;14.68;9.10;;;4.30;58.50;;;;;;5015071;28;20058;-63
2023/04/10 03:14:18;;;;;;;12.95;8.98;;;4.30;58.70;;;;;;5025639;28;20029;-62
2023/04/10 03:16:46;;;;;;;14.20;9.48;;;4.30;58.80;;;;;;5021424;28;20041;-62
2023/04/10 03:19:12;;;;;;;14.23;9.55;;;4.30;58.90;;;;;;5029132;28;20112;-63
2023/04/10 03:21:38;;;;;;;13.40;9.02;;;4.20;58.80;;;;;;5027405;28;20021;-63
2023/04/10 03:24:04;;;;;;;14.35;9.57;;;4.20;58.80;;;;;;5018711;28;20041;-62
2023/04/10 03:26:30;;;;;;;15.38;9.50;;;4.20;58.90;;;;;;5031709;28;20025;-63
2023/04/10 03:28:56;;;;;;;14.07;8.90;;;4.20;58.80;;;;;;5024770;28;20025;-62
2023/04/10 03:31:22;;;;;;;15.85;9.68;;;4.20;58.80;;;;;;5016165;28;20041;-62
2023/04/10 03:33:47;;;;;;;17.45;9.73;;;4.10;58.70;;;;;;5026053;28;20037;-61
2023/04/10 03:36:13;;;;;;;16.38;9.48;;;4.10;58.80;;;;;;5027021;28;20062;-65
2023/04/10 03:38:39;;;;;;;16.35;9.45;;;4.10;58.80;;;;;;5020825;28;20026;-62
2023/04/10 03:41:05;;;;;;;13.25;8.98;;;4.10;59.00;;;;;;5020528;28;20022;-63
2023/04/10 03:43:31;;;;;;;14.50;9.23;;;4.10;59.10;;;;;;5025349;28;20088;-62
2023/04/10 03:45:57;;;;;;;14.48;9.13;;;4.00;59.20;;;;;;5032400;28;20381;-63
2023/04/10 03:48:22;;;;;;;14.52;8.70;;;4.00;59.30;;;;;;5025367;28;20037;-63
2023/04/10 03:50:48;;;;;;;13.80;9.02;;;4.00;59.30;;;;;;5028907;28;20065;-63
2023/04/10 03:53:14;;;;;;;16.63;9.57;;;4.00;59.30;;;;;;5028862;28;20129;-63
2023/04/10 03:55:40;;;;;;;16.35;9.00;;;3.90;59.20;;;;;;5033041;28;20018;-62
2023/04/10 03:58:05;;;;;;;15.85;9.15;;;3.90;59.30;;;;;;5048961;28;20059;-62
2023/04/10 04:00:32;;;;;;;15.40;9.38;;;3.90;59.40;;;;;;5021893;28;20053;-63
2023/04/10 04:02:59;;;;;;;13.45;9.00;;;3.90;59.50;;;;;;5023389;28;20049;-62
2023/04/10 04:05:25;;;;;;;15.32;9.10;;;3.90;59.50;;;;;;5018542;28;20061;-61
2023/04/10 04:07:51;;;;;;;14.88;9.25;;;3.90;59.40;;;;;;5020421;28;20033;-62
2023/04/10 04:10:16;;;;;;;14.18;9.60;;;3.80;59.30;;;;;;5017492;28;20020;-61
2023/04/10 04:12:42;;;;;;;20.00;10.07;;;3.80;59.30;;;;;;5028027;28;20053;-62
2023/04/10 04:15:08;;;;;;;14.55;9.40;;;3.80;59.30;;;;;;5023562;28;20057;-62
2023/04/10 04:17:34;;;;;;;14.48;8.80;;;3.80;59.30;;;;;;5021627;28;20026;-62
2023/04/10 04:20:00;;;;;;;13.80;8.98;;;3.70;59.30;;;;;;5036273;28;20022;-62
2023/04/10 04:22:25;;;;;;;17.88;9.52;;;3.70;59.40;;;;;;5053414;28;20025;-62
2023/04/10 04:24:51;;;;;;;13.65;8.70;;;3.70;59.40;;;;;;5028150;28;20049;-62
2023/04/10 04:27:18;;;;;;;14.98;8.98;;;3.70;59.40;;;;;;5023630;28;20021;-62
2023/04/10 04:29:44;;;;;;;13.90;8.65;;;3.70;59.30;;;;;;5027679;28;20022;-62
2023/04/10 04:32:10;;;;;;;14.13;9.00;;;3.70;59.30;;;;;;5022421;28;20030;-62
2023/04/10 04:34:36;;;;;;;13.68;8.90;;;3.70;59.40;;;;;;5029905;28;20083;-61
2023/04/10 04:37:01;;;;;;;14.23;8.55;;;3.70;59.40;;;;;;5022382;28;20072;-61
2023/04/10 04:39:27;;;;;;;15.63;9.05;;;3.60;59.40;;;;;;5027572;28;20024;-62
2023/04/10 04:41:53;;;;;;;13.75;7.63;;;3.60;59.50;;;;;;4939886;28;20030;-62
2023/04/10 04:44:19;;;;;;;13.63;8.80;;;3.60;59.50;;;;;;5030504;28;20026;-63
2023/04/10 04:46:45;;;;;;;14.85;8.98;;;3.60;59.50;;;;;;5021242;28;20025;-62
2023/04/10 04:49:11;;;;;;;15.05;8.57;;;3.60;59.50;;;;;;5019355;28;20041;-62
2023/04/10 04:51:37;;;;;;;13.93;8.43;;;3.60;59.80;;;;;;5019380;28;20045;-62
2023/04/10 04:54:03;;;;;;;13.02;8.48;;;3.60;60.00;;;;;;5026975;28;20022;-62
2023/04/10 04:56:29;;;;;;;12.63;8.48;;;3.60;60.10;;;;;;5025490;28;20029;-62
2023/04/10 04:58:54;;;;;;;13.32;8.77;;;3.60;60.00;;;;;;5021521;28;20037;-63
2023/04/10 05:01:20;;;;;;;16.60;8.63;;;3.60;60.00;;;;;;5031054;28;20064;-63
2023/04/10 05:03:46;;;;;;;15.40;8.60;;;3.60;60.10;;;;;;5033682;28;20030;-62
2023/04/10 05:06:13;;;;;;;14.45;8.75;;;3.60;60.20;;;;;;5029908;28;20017;-61
2023/04/10 05:08:38;;;;;;;15.85;9.07;;;3.60;60.40;;;;;;5023887;28;20022;-62
2023/04/10 05:11:05;;;;;;;13.70;8.80;;;3.60;60.50;;;;;;5029584;28;20025;-62
2023/04/10 05:13:30;;;;;;;16.17;9.40;;;3.70;60.50;;;;;;5025803;28;20022;-62
2023/04/10 05:15:56;;;;;;;18.35;9.80;;;3.70;60.50;;;;;;5040743;28;20040;-61
2023/04/10 05:18:22;;;;;;;15.43;9.02;;;3.80;60.70;;;;;;5030082;28;20029;-62
2023/04/10 05:20:49;;;;;;;14.23;8.93;;;3.80;60.70;;;;;;5014696;28;20365;-63
2023/04/10 05:23:15;;;;;;;15.20;9.18;;;3.90;60.70;;;;;;5024261;28;20125;-61
2023/04/10 05:25:41;;;;;;;16.17;9.23;;;3.90;60.70;;;;;;5026527;28;20030;-63
2023/04/10 05:28:07;;;;;;;12.98;8.82;;;4.00;60.80;;;;;;5063426;28;20042;-62
2023/04/10 05:30:33;;;;;;;15.27;9.15;;;4.10;60.80;;;;;;5035146;28;20401;-62
2023/04/10 05:32:59;;;;;;;16.50;9.38;;;4.10;60.80;;;;;;5038525;28;20037;-63
2023/04/10 05:35:24;;;;;;;18.17;9.77;;;4.20;60.90;;;;;;5031353;28;20029;-63
2023/04/10 05:37:50;;;;;;;17.35;10.18;;;4.40;61.00;;;;;;5026202;28;21240;-62
2023/04/10 05:40:16;;;;;;;16.73;10.30;;;4.40;61.10;;;;;;5019721;28;20072;-63
2023/04/10 05:42:41;;;;;;;18.85;10.60;;;4.50;61.10;;;;;;5031769;28;20077;-62
2023/04/10 05:45:07;;;;;;;14.65;9.70;;;4.60;61.30;;;;;;5039168;28;20057;-62
2023/04/10 05:47:33;;;;;;;16.05;9.85;;;4.80;61.30;;;;;;5030381;28;20028;-64
2023/04/10 05:49:59;;;;;;;24.52;12.45;;;4.90;61.20;;;;;;5019405;28;20075;-63
2023/04/10 05:52:24;;;;;;;20.38;11.77;;;5.00;61.10;;;;;;5035627;28;20025;-62
2023/04/10 05:54:53;;;;;;;20.92;11.77;;;5.10;61.00;;;;;;5036679;28;20646;-63
2023/04/10 05:57:18;;;;;;;20.95;12.25;;;5.30;60.90;;;;;;5020381;28;20578;-63
2023/04/10 05:59:44;;;;;;;18.05;11.23;;;5.40;60.80;;;;;;5027074;28;20093;-62
2023/04/10 06:02:10;;;;;;;19.50;11.57;;;5.50;60.80;;;;;;5055846;28;20569;-63
2023/04/10 06:04:36;;;;;;;19.73;11.80;;;5.70;60.80;;;;;;5026754;28;20477;-66
2023/04/10 06:07:02;;;;;;;20.73;12.55;;;5.80;60.90;;;;;;5024367;28;20065;-67
2023/04/10 06:09:27;;;;;;;19.77;12.45;;;5.90;60.90;;;;;;5024780;28;20064;-65
2023/04/10 06:11:53;;;;;;;22.38;12.98;;;6.10;61.10;;;;;;5027469;28;20038;-65
2023/04/10 06:14:19;;;;;;;24.25;14.15;;;6.20;60.80;;;;;;5017448;28;20033;-66
2023/04/10 06:16:45;;;;;;;21.92;12.90;;;6.40;60.80;;;;;;5026555;28;20076;-66
2023/04/10 06:19:11;;;;;;;20.08;12.85;;;6.50;60.70;;;;;;5055988;28;20026;-66
2023/04/10 06:21:36;;;;;;;18.23;12.23;;;6.70;60.70;;;;;;5044480;28;20026;-65
2023/04/10 06:24:02;;;;;;;20.42;13.38;;;6.90;60.30;;;;;;5023777;28;20062;-65
2023/04/10 06:26:28;;;;;;;21.80;13.23;;;7.00;60.30;;;;;;5031732;28;20576;-66
2023/04/10 06:28:54;;;;;;;23.15;14.57;;;7.10;59.90;;;;;;5026432;28;20059;-65
2023/04/10 06:31:23;;;;;;;21.65;13.43;;;7.20;59.80;;;;;;5055810;28;20025;-66
2023/04/10 06:33:49;;;;;;;22.23;14.15;;;7.30;59.90;;;;;;5024639;28;20049;-65
2023/04/10 06:36:15;;;;;;;30.92;16.67;;;7.50;59.90;;;;;;5021595;28;20064;-66
2023/04/10 06:38:41;;;;;;;29.92;16.02;;;7.60;59.90;;;;;;5034315;28;20039;-65
2023/04/10 06:41:07;;;;;;;30.65;15.98;;;7.70;59.80;;;;;;5037765;28;20493;-66
2023/04/10 06:43:34;;;;;;;27.42;14.98;;;7.90;59.80;;;;;;5021262;28;20040;-66
2023/04/10 06:46:00;;;;;;;23.38;13.15;;;8.00;59.70;;;;;;5029628;28;20026;-65
2023/04/10 06:48:25;;;;;;;26.00;13.82;;;8.20;59.60;;;;;;5028970;28;20029;-65
2023/04/10 06:50:51;;;;;;;20.02;13.10;;;8.30;59.20;;;;;;5025348;28;20029;-65
2023/04/10 06:53:17;;;;;;;18.08;10.93;;;8.40;59.10;;;;;;5028370;28;20052;-65
2023/04/10 06:55:42;;;;;;;17.45;11.15;;;8.60;59.20;;;;;;5028674;28;20030;-66
2023/04/10 06:58:08;;;;;;;15.80;10.30;;;8.70;59.00;;;;;;5054111;28;20224;-67
2023/04/10 07:00:34;;;;;;;17.55;10.98;;;8.80;59.30;;;;;;5026653;28;20044;-66
2023/04/10 07:02:59;;;;;;;15.93;10.93;;;8.90;58.60;;;;;;5022721;28;20034;-65
2023/04/10 07:05:25;;;;;;;16.55;11.15;;;9.10;58.50;;;;;;5022705;28;20022;-65
2023/04/10 07:07:51;;;;;;;15.52;10.20;;;9.20;58.30;;;;;;5023238;28;20029;-66
2023/04/10 07:10:16;;;;;;;18.33;10.55;;;9.30;58.30;;;;;;5032841;28;20022;-66
2023/04/10 07:12:42;;;;;;;15.65;10.95;;;9.40;58.20;;;;;;5021207;28;20481;-66
2023/04/10 07:15:08;;;;;;;14.90;10.57;;;9.60;58.10;;;;;;5025337;28;20069;-65
2023/04/10 07:17:34;;;;;;;14.05;10.70;;;9.70;57.90;;;;;;5025992;28;20096;-66
2023/04/10 07:20:00;;;;;;;15.23;10.80;;;9.80;57.70;;;;;;5024683;28;20030;-66
2023/04/10 07:22:26;;;;;;;14.45;11.00;;;10.00;57.60;;;;;;5019037;28;20033;-66
2023/04/10 07:24:52;;;;;;;15.32;10.25;;;10.10;57.40;;;;;;5019143;28;20462;-66
2023/04/10 07:27:19;;;;;;;15.52;10.55;;;10.30;57.30;;;;;;5026540;28;20041;-66
2023/04/10 07:29:45;;;;;;;15.10;11.05;;;10.40;57.30;;;;;;5019483;28;20022;-65
2023/04/10 07:32:11;;;;;;;14.20;10.15;;;10.50;57.30;;;;;;5022712;28;20093;-65
2023/04/10 07:34:36;;;;;;;14.20;10.20;;;10.70;57.20;;;;;;5026139;28;20085;-66
2023/04/10 07:37:02;;;;;;;15.77;11.43;;;10.80;57.20;;;;;;5023838;28;20518;-66
2023/04/10 07:39:28;;;;;;;14.63;9.77;;;11.00;57.10;;;;;;5024988;28;20867;-67
2023/04/10 07:41:54;;;;;;;12.85;9.32;;;11.20;56.60;;;;;;5050327;28;20039;-67
2023/04/10 07:44:19;;;;;;;13.60;9.07;;;11.30;56.30;;;;;;5027326;28;20033;-66
2023/04/10 07:46:46;;;;;;;13.40;9.65;;;11.40;56.00;;;;;;5025186;28;20072;-67
2023/04/10 07:49:12;;;;;;;12.25;8.95;;;11.60;55.70;;;;;;5025594;28;20465;-67
2023/04/10 07:51:37;;;;;;;12.60;9.07;;;11.70;55.70;;;;;;5027122;28;20033;-66
2023/04/10 07:54:03;;;;;;;12.07;8.65;;;11.90;55.40;;;;;;5022820;28;20153;-66
2023/04/10 07:56:32;;;;;;;11.73;9.00;;;12.00;55.00;;;;;;5018978;28;20033;-66
2023/04/10 07:59:02;;;;;;;11.48;8.85;;;12.00;54.70;;;;;;5044568;28;20536;-66
2023/04/10 08:01:28;;;;;;;12.45;9.38;;;12.10;54.60;;;;;;5023842;28;20025;-66
2023/04/10 08:03:55;;;;;;;12.45;9.50;;;12.20;54.50;;;;;;5022586;28;20093;-67
2023/04/10 08:06:21;;;;;;;11.88;9.00;;;12.30;54.50;;;;;;5027759;28;20022;-66
2023/04/10 08:08:47;;;;;;;12.82;9.27;;;12.40;54.20;;;;;;5032011;28;20038;-66
2023/04/10 08:11:27;;;;;;;11.40;8.13;;;12.50;54.50;;;;;;5019839;28;20026;-67
2023/04/10 08:14:00;;;;;;;10.82;8.50;;;12.60;54.20;;;;;;5027291;28;20036;-66
2023/04/10 08:16:28;;;;;;;11.13;8.68;;;12.70;54.20;;;;;;5030326;28;20499;-67
2023/04/10 08:18:56;;;;;;;11.68;7.78;;;12.90;53.90;;;;;;5022322;28;20038;-67
2023/04/10 08:21:23;;;;;;;12.40;8.82;;;13.00;53.40;;;;;;5015951;28;20037;-66
2023/04/10 08:23:50;;;;;;;9.35;7.55;;;13.10;53.20;;;;;;5043628;28;20057;-66
2023/04/10 08:26:16;;;;;;;11.95;8.73;;;13.30;53.10;;;;;;5025747;28;20047;-66
2023/04/10 08:28:46;;;;;;;11.07;8.35;;;13.40;53.00;;;;;;5023665;28;20093;-66
2023/04/10 08:31:12;;;;;;;9.95;7.95;;;13.50;52.90;;;;;;5022935;28;20022;-66
2023/04/10 08:33:38;;;;;;;10.15;8.38;;;13.60;52.80;;;;;;5020365;28;20094;-66
2023/04/10 08:36:05;;;;;;;10.98;7.97;;;13.80;52.70;;;;;;5042052;28;20075;-66
2023/04/10 08:38:30;;;;;;;8.25;7.20;;;13.90;51.90;;;;;;5045329;28;20025;-67
2023/04/10 08:40:57;;;;;;;9.27;7.47;;;14.00;51.80;;;;;;4981436;28;20475;-62
2023/04/10 08:43:23;;;;;;;9.43;7.47;;;14.10;51.30;;;;;;5034135;28;20042;-67
2023/04/10 08:45:51;;;;;;;9.90;7.82;;;14.20;51.00;;;;;;5031309;28;20021;-67
2023/04/10 08:48:21;;;;;;;9.82;7.63;;;14.20;50.50;;;;;;5025598;28;20109;-66
2023/04/10 08:50:48;;;;;;;8.57;7.00;;;14.30;50.50;;;;;;5026873;28;20047;-67
2023/04/10 08:53:15;;;;;;;11.07;7.55;;;14.30;50.60;;;;;;5020647;28;20033;-65
2023/04/10 08:55:42;;;;;;;8.70;7.07;;;14.30;50.50;;;;;;5023238;28;20025;-66
2023/04/10 08:58:10;;;;;;;8.57;6.95;;;14.40;50.60;;;;;;5029552;28;20019;-67
2023/04/10 09:00:37;;;;;;;11.73;7.88;;;14.50;50.50;;;;;;5022885;28;20101;-67
2023/04/10 09:03:13;;;;;;;10.75;7.88;;;14.60;50.30;;;;;;5029278;28;20041;-64
2023/04/10 09:05:39;;;;;;;8.98;7.00;;;14.60;49.80;;;;;;5021928;28;20049;-67
2023/04/10 09:08:07;;;;;;;10.32;7.60;;;14.70;50.30;;;;;;5026349;28;20029;-67
2023/04/10 09:10:32;;;;;;;9.52;7.72;;;14.80;50.00;;;;;;5024386;28;20080;-67
2023/04/10 09:12:58;;;;;;;9.65;7.63;;;14.90;50.20;;;;;;5028193;28;20126;-66
2023/04/10 09:15:25;;;;;;;11.07;8.05;;;15.00;50.00;;;;;;5072892;28;20033;-66
2023/04/10 09:17:58;;;;;;;8.70;7.05;;;15.10;49.60;;;;;;5018103;28;20026;-66
2023/04/10 09:20:30;;;;;;;8.15;7.18;;;15.20;49.60;;;;;;5018120;28;20030;-68
2023/04/10 09:22:56;;;;;;;9.63;7.47;;;15.30;49.90;;;;;;5029868;28;20063;-66
2023/04/10 09:25:29;;;;;;;10.88;8.75;;;15.50;49.80;;;;;;5031621;28;20033;-66
2023/04/10 09:28:04;;;;;;;10.00;8.50;;;15.60;49.30;;;;;;5045281;28;20029;-66
2023/04/10 09:30:38;;;;;;;9.95;7.90;;;15.70;49.50;;;;;;5035168;28;20070;-65
2023/04/10 09:33:26;;;;;;;9.98;7.55;;;15.90;49.20;;;;;;5029691;28;20187;-68
2023/04/10 09:35:52;;;;;;;8.43;6.72;;;16.00;48.70;;;;;;5024716;28;20100;-67
2023/04/10 09:38:20;;;;;;;8.88;7.20;;;16.20;49.10;;;;;;5041463;28;20033;-65
2023/04/10 09:40:47;;;;;;;7.88;6.53;;;16.30;48.90;;;;;;5028217;28;20037;-68
2023/04/10 09:43:24;;;;;;;8.95;6.90;;;16.40;48.60;;;;;;4959217;28;20061;-67
2023/04/10 09:45:51;;;;;;;7.03;5.97;;;16.50;47.80;;;;;;5019335;28;20025;-67
2023/04/10 09:48:17;;;;;;;6.72;6.03;;;16.70;48.10;;;;;;5028027;28;20026;-67
2023/04/10 09:50:43;;;;;;;7.63;5.63;;;16.80;47.90;;;;;;5033530;28;20499;-66
2023/04/10 09:53:11;;;;;;;8.73;5.90;;;16.90;47.20;;;;;;5024146;28;20373;-65
2023/04/10 09:55:36;;;;;;;8.63;5.32;;;17.00;46.70;;;;;;5043478;28;20038;-66
2023/04/10 09:58:04;;;;;;;7.20;5.35;;;17.10;46.90;;;;;;5026124;28;20105;-67
2023/04/10 10:00:32;;;;;;;7.95;5.30;;;17.20;46.70;;;;;;5020377;28;20026;-67
2023/04/10 10:02:59;;;;;;;7.20;5.60;;;17.30;46.30;;;;;;5027111;28;20034;-66
2023/04/10 10:05:29;;;;;;;6.63;5.03;;;17.40;45.80;;;;;;5027920;28;20022;-67
2023/04/10 10:07:56;;;;;;;6.63;5.90;;;17.50;45.80;;;;;;5024049;28;20017;-67
2023/04/10 10:10:23;;;;;;;6.60;5.10;;;17.60;45.90;;;;;;5025985;28;20049;-66
2023/04/10 10:12:53;;;;;;;6.18;5.47;;;17.70;45.40;;;;;;5027928;28;20104;-65
2023/04/10 10:15:49;;;;;;;5.85;4.97;;;17.70;44.70;;;;;;5021230;28;20036;-64
2023/04/10 10:18:33;;;;;;;6.00;4.70;;;17.80;43.50;;;;;;5022454;28;20021;-66
2023/04/10 10:20:59;;;;;;;5.80;4.35;;;17.90;43.90;;;;;;5027723;28;20076;-67
2023/04/10 10:23:26;;;;;;;6.18;5.05;;;17.90;45.10;;;;;;5018425;28;20065;-66
2023/04/10 10:25:53;;;;;;;5.78;5.03;;;18.00;44.90;;;;;;5017668;28;20113;-67
2023/04/10 10:28:20;;;;;;;5.85;4.80;;;18.10;44.30;;;;;;5026933;28;20030;-66
2023/04/10 10:30:48;;;;;;;5.05;4.55;;;18.20;43.60;;;;;;5027086;28;20033;-66
2023/04/10 10:33:14;;;;;;;6.43;4.93;;;18.40;43.60;;;;;;5034500;28;20429;-67
2023/04/10 10:35:41;;;;;;;7.25;5.43;;;18.30;44.00;;;;;;5035881;28;20034;-66
2023/04/10 10:38:07;;;;;;;7.93;4.63;;;18.40;43.10;;;;;;5035983;28;20033;-66
2023/04/10 10:40:50;;;;;;;5.60;4.03;;;18.40;43.30;;;;;;5027032;28;20029;-66
2023/04/10 10:43:36;;;;;;;5.05;4.30;;;18.50;42.50;;;;;;5027738;28;20030;-67
2023/04/10 10:46:08;;;;;;;5.05;4.28;;;18.60;42.30;;;;;;5030052;28;20034;-66
2023/04/10 10:48:33;;;;;;;5.65;4.35;;;18.70;42.80;;;;;;5031560;28;20563;-66
2023/04/10 10:51:01;;;;;;;5.63;4.50;;;18.80;42.90;;;;;;5022453;28;20026;-66
2023/04/10 10:53:43;;;;;;;4.90;4.40;;;18.80;42.90;;;;;;5032909;28;20101;-66
2023/04/10 10:56:18;;;;;;;4.50;3.92;;;19.00;41.90;;;;;;5026715;28;20036;-65
2023/04/10 10:58:56;;;;;;;4.70;3.50;;;19.10;41.70;;;;;;5035974;28;20040;-66
2023/04/10 11:01:22;;;;;;;4.40;3.80;;;19.20;41.60;;;;;;5028346;28;20052;-68
2023/04/10 11:03:49;;;;;;;4.15;3.75;;;19.30;41.70;;;;;;5026126;28;20040;-67
2023/04/10 11:06:18;;;;;;;4.30;3.83;;;19.40;41.40;;;;;;5037572;28;20084;-67
2023/04/10 11:08:48;;;;;;;4.10;3.70;;;19.50;41.10;;;;;;5026551;28;20030;-67
2023/04/10 11:11:57;;;;;;;4.05;3.65;;;19.60;41.40;;;;;;5030163;28;20026;-65
2023/04/10 11:14:23;;;;;;;3.70;3.35;;;19.70;40.00;;;;;;5023190;28;20077;-67
2023/04/10 11:16:49;;;;;;;3.58;2.90;;;19.80;40.80;;;;;;5029112;28;20021;-66
2023/04/10 11:19:16;;;;;;;3.08;2.78;;;19.90;39.90;;;;;;5032439;28;20520;-65
2023/04/10 11:22:06;;;;;;;4.28;3.25;;;19.90;39.50;;;;;;5026154;28;20477;-66
2023/04/10 11:24:57;;;;;;;3.25;2.95;;;20.00;37.90;;;;;;5022115;28;20048;-66
2023/04/10 11:27:44;;;;;;;3.20;2.90;;;20.00;36.90;;;;;;5025818;28;20112;-66
2023/04/10 11:30:26;;;;;;;3.20;2.53;;;20.00;36.70;;;;;;5033928;28;20540;-66
2023/04/10 11:32:53;;;;;;;2.90;2.60;;;20.10;36.90;;;;;;5043518;28;20025;-66
2023/04/10 11:35:19;;;;;;;2.25;2.05;;;20.20;38.30;;;;;;5049406;28;20025;-66
2023/04/10 11:37:45;;;;;;;2.65;2.30;;;20.20;38.40;;;;;;5031062;28;20033;-67
2023/04/10 11:40:11;;;;;;;2.10;1.90;;;20.30;38.10;;;;;;5023841;28;20059;-66
2023/04/10 11:42:37;;;;;;;2.30;1.85;;;20.30;37.70;;;;;;5021819;28;20040;-66
2023/04/10 11:45:25;;;;;;;2.90;2.40;;;20.40;38.00;;;;;;5017900;28;20025;-67
2023/04/10 11:47:54;;;;;;;1.90;1.80;;;20.40;36.30;;;;;;5017585;28;20420;-67
2023/04/10 11:50:20;;;;;;;2.20;2.00;;;20.50;37.10;;;;;;5018049;28;20029;-66
2023/04/10 11:52:50;;;;;;;2.13;1.92;;;20.60;37.30;;;;;;5028272;28;20112;-66
2023/04/10 11:55:16;;;;;;;3.28;2.53;;;20.70;35.90;;;;;;5026462;28;20029;-66
2023/04/10 11:57:43;;;;;;;4.35;1.90;;;20.80;36.60;;;;;;5030364;28;20077;-67
2023/04/10 12:00:09;;;;;;;1.70;1.60;;;20.80;36.80;;;;;;5021903;28;20049;-67
2023/04/10 12:02:47;;;;;;;2.33;1.83;;;20.80;35.80;;;;;;5034065;28;20076;-66
2023/04/10 12:05:13;;;;;;;2.00;1.58;;;20.80;35.10;;;;;;5056071;28;20025;-67
2023/04/10 12:07:38;;;;;;;1.83;1.70;;;20.80;35.00;;;;;;5047880;28;20022;-67
2023/04/10 12:10:05;;;;;;;2.08;1.88;;;20.80;35.20;;;;;;5014676;28;20388;-66
2023/04/10 12:12:36;;;;;;;2.25;2.00;;;20.80;35.00;;;;;;5063682;28;20018;-66
2023/04/10 12:15:03;;;;;;;1.80;1.70;;;20.80;33.10;;;;;;5023389;28;20037;-65
2023/04/10 12:17:29;;;;;;;2.13;1.90;;;20.70;33.90;;;;;;5019125;28;20122;-67
2023/04/10 12:19:56;;;;;;;2.05;1.80;;;20.70;34.50;;;;;;5028952;28;20029;-67
2023/04/10 12:22:22;;;;;;;1.80;1.58;;;20.70;34.10;;;;;;5034126;28;20037;-66
2023/04/10 12:24:50;;;;;;;1.90;1.60;;;20.70;34.20;;;;;;5056718;28;20034;-66
2023/04/10 12:27:26;;;;;;;1.95;1.85;;;20.80;33.70;;;;;;5024727;28;20022;-66
2023/04/10 12:29:57;;;;;;;2.33;2.00;;;20.80;33.40;;;;;;5017713;28;20080;-66
2023/04/10 12:32:24;;;;;;;2.17;1.98;;;20.90;34.30;;;;;;5016718;28;20137;-68
2023/04/10 12:34:57;;;;;;;2.50;2.30;;;20.90;34.40;;;;;;5019654;28;20018;-65
2023/04/10 12:38:00;;;;;;;2.33;1.73;;;21.00;33.70;;;;;;5022886;28;20054;-66
2023/04/10 12:40:26;;;;;;;5.85;3.40;;;21.10;33.60;;;;;;5023232;28;20312;-66
2023/04/10 12:42:52;;;;;;;2.97;2.60;;;21.20;34.60;;;;;;5023095;28;20034;-65
2023/04/10 12:45:17;;;;;;;2.47;1.88;;;21.20;33.70;;;;;;5020754;28;20034;-66
2023/04/10 12:47:50;;;;;;;1.65;1.55;;;21.40;34.00;;;;;;5024753;28;20021;-66
2023/04/10 12:50:17;;;;;;;3.38;1.65;;;21.50;33.40;;;;;;5013739;28;20034;-65